createdAt,value
2018-11-10T00:01:01.381Z,48.25
2018-11-10T00:06:06.263Z,45.28
2018-11-10T00:11:10.912Z,47.08
2018-11-10T00:16:15.425Z,49.53
2018-11-10T00:21:20.963Z,45.63
2018-11-10T00:26:25.599Z,43.08
2018-11-10T00:31:36.383Z,46.75
2018-11-10T00:36:41.037Z,44.27
2018-11-10T00:41:45.767Z,47.43
2018-11-10T00:46:50.924Z,47.90
2018-11-10T00:51:55.569Z,43.38
2018-11-10T00:57:00.102Z,44.25
2018-11-10T01:02:05.292Z,41.37
2018-11-10T01:07:09.868Z,54.48
2018-11-10T01:12:15.088Z,46.75
2018-11-10T01:17:19.748Z,53.30
2018-11-10T01:22:24.384Z,48.83
2018-11-10T01:27:29.417Z,44.08
2018-11-10T01:32:34.141Z,47.40
2018-11-10T01:37:39.012Z,42.38
2018-11-10T01:42:43.768Z,43.65
2018-11-10T01:47:49.920Z,41.08
2018-11-10T01:58:21.928Z,42.17
2018-11-10T02:03:26.366Z,50.03
2018-11-10T02:08:30.858Z,47.00
2018-11-10T02:13:35.289Z,50.83
2018-11-10T02:18:40.861Z,54.48
2018-11-10T02:23:45.847Z,46.57
2018-11-10T02:28:50.283Z,47.53
2018-11-10T02:33:54.974Z,43.87
2018-11-10T02:38:59.615Z,45.48
2018-11-10T02:44:04.132Z,45.65
2018-11-10T02:49:09.041Z,41.63
2018-11-10T02:54:13.713Z,53.78
2018-11-10T02:59:18.172Z,42.47
2018-11-10T03:04:22.704Z,42.20
2018-11-10T03:09:27.446Z,43.78
2018-11-10T03:14:32.183Z,48.68
2018-11-10T03:19:36.798Z,48.02
2018-11-10T03:24:45.052Z,46.30
2018-11-10T03:29:49.962Z,46.85
2018-11-10T03:34:55.228Z,50.87
2018-11-10T03:39:59.894Z,52.60
2018-11-10T03:45:04.601Z,51.88
2018-11-10T03:50:09.886Z,49.20
2018-11-10T03:55:14.507Z,48.38
2018-11-10T04:00:19.626Z,47.00
2018-11-10T04:05:27.338Z,48.40
2018-11-10T04:10:32.123Z,56.75
2018-11-10T04:15:37.414Z,60.90
2018-11-10T04:20:42.017Z,49.55
2018-11-10T04:25:46.614Z,44.90
2018-11-10T04:30:51.236Z,52.35
2018-11-10T04:35:56.424Z,45.38
2018-11-10T04:41:00.866Z,45.28
2018-11-10T04:46:07.067Z,42.83
2018-11-10T04:51:12.118Z,47.40
2018-11-10T04:56:16.708Z,46.33
2018-11-10T05:01:21.343Z,42.73
2018-11-10T05:06:25.998Z,35.90
2018-11-10T05:11:30.640Z,34.95
2018-11-10T05:16:35.128Z,31.80
2018-11-10T05:21:39.791Z,31.40
2018-11-10T05:26:44.524Z,36.95
2018-11-10T05:37:16.464Z,31.53
2018-11-10T05:42:21.013Z,27.10
2018-11-10T05:47:25.704Z,27.07
2018-11-10T05:52:30.145Z,23.50
2018-11-10T05:57:34.691Z,30.53
2018-11-10T06:02:39.440Z,29.50
2018-11-10T06:07:43.615Z,26.10
2018-11-10T06:12:48.249Z,27.20
2018-11-10T06:17:52.819Z,20.10
2018-11-10T06:22:58.375Z,24.10
2018-11-10T06:33:13.272Z,23.07
2018-11-10T06:38:17.640Z,25.73
2018-11-10T06:43:22.244Z,25.23
2018-11-10T06:48:27.149Z,27.47
2018-11-10T06:53:31.695Z,26.03
2018-11-10T06:58:36.276Z,23.90
2018-11-10T07:03:40.812Z,21.77
2018-11-10T07:08:45.866Z,18.20
2018-11-10T07:13:50.189Z,23.77
2018-11-10T07:18:54.801Z,18.37
2018-11-10T07:23:59.161Z,17.70
2018-11-10T07:29:03.887Z,20.33
2018-11-10T07:34:08.576Z,22.97
2018-11-10T07:39:14.264Z,23.03
2018-11-10T07:44:18.767Z,20.97
2018-11-10T07:49:23.781Z,20.47
2018-11-10T07:54:28.440Z,19.37
2018-11-10T07:59:33.038Z,21.73
2018-11-10T08:04:37.355Z,19.60
2018-11-10T08:09:42.499Z,21.17
2018-11-10T08:14:47.154Z,19.87
2018-11-10T08:19:51.834Z,20.02
2018-11-10T08:24:56.329Z,19.37
2018-11-10T08:30:00.681Z,15.07
2018-11-10T08:35:05.537Z,15.13
2018-11-10T08:40:12.957Z,18.23
2018-11-10T08:45:18.233Z,17.70
2018-11-10T08:50:22.603Z,17.27
2018-11-10T08:55:27.137Z,22.90
2018-11-10T09:00:31.615Z,16.77
2018-11-10T09:05:37.162Z,17.77
2018-11-10T09:10:41.784Z,21.43
2018-11-10T09:15:46.158Z,20.47
2018-11-10T09:20:50.586Z,27.00
2018-11-10T09:25:55.047Z,22.47
2018-11-10T09:31:00.249Z,21.67
2018-11-10T09:36:04.608Z,24.87
2018-11-10T09:41:09.132Z,26.73
2018-11-10T09:46:13.697Z,31.55
2018-11-10T09:51:19.327Z,32.47
2018-11-10T09:56:23.965Z,33.53
2018-11-10T10:01:28.576Z,26.55
2018-11-10T10:06:32.884Z,23.12
2018-11-10T10:11:38.386Z,22.58
2018-11-10T10:16:42.890Z,31.33
2018-11-10T10:21:47.259Z,26.23
2018-11-10T10:26:51.771Z,24.05
2018-11-10T10:31:56.265Z,29.87
2018-11-10T10:37:00.965Z,30.72
2018-11-10T10:42:05.330Z,29.48
2018-11-10T10:47:10.024Z,26.00
2018-11-10T10:52:15.094Z,29.87
2018-11-10T10:57:26.128Z,28.60
2018-11-10T11:02:36.391Z,31.07
2018-11-10T11:07:41.428Z,31.23
2018-11-10T11:12:46.730Z,31.15
2018-11-10T11:17:51.212Z,24.70
2018-11-10T11:22:55.399Z,29.67
2018-11-10T11:27:59.707Z,31.05
2018-11-10T11:33:04.347Z,34.05
2018-11-10T11:38:15.470Z,33.95
2018-11-10T11:43:20.062Z,31.33
2018-11-10T11:48:24.615Z,31.20
2018-11-10T11:53:29.932Z,29.50
2018-11-10T11:58:34.331Z,33.45
2018-11-10T12:03:38.981Z,30.20
2018-11-10T12:08:45.252Z,30.75
2018-11-10T12:13:50.677Z,36.58
2018-11-10T12:18:55.237Z,31.20
2018-11-10T12:29:28.495Z,27.60
2018-11-10T12:34:54.415Z,28.25
2018-11-10T12:39:58.729Z,27.55
2018-11-10T12:45:03.037Z,29.23
2018-11-10T12:50:09.501Z,27.30
2018-11-10T12:55:15.244Z,29.27
2018-11-10T13:00:20.246Z,29.32
2018-11-10T13:05:24.737Z,27.52
2018-11-10T13:10:29.206Z,27.55
2018-11-10T13:15:34.388Z,30.95
2018-11-10T13:20:39.971Z,28.75
2018-11-10T13:25:44.339Z,23.22
2018-11-10T13:30:49.083Z,24.57
2018-11-10T13:35:54.749Z,30.48
2018-11-10T13:40:59.257Z,23.67
2018-11-10T13:46:04.500Z,24.02
2018-11-10T13:51:09.986Z,27.42
2018-11-10T13:56:14.489Z,25.23
2018-11-10T14:01:19.000Z,24.77
2018-11-10T14:06:24.008Z,23.35
2018-11-10T14:11:28.545Z,21.25
2018-11-10T14:16:33.334Z,25.37
2018-11-10T14:21:45.856Z,26.37
2018-11-10T14:26:51.807Z,26.90
2018-11-10T14:31:56.793Z,23.40
2018-11-10T14:37:01.306Z,25.12
2018-11-10T14:42:06.284Z,26.40
2018-11-10T14:47:10.896Z,26.68
2018-11-10T14:52:15.843Z,25.95
2018-11-10T14:57:21.225Z,23.90
2018-11-10T15:02:25.945Z,27.58
2018-11-10T15:07:30.940Z,29.30
2018-11-10T15:12:36.151Z,25.25
2018-11-10T15:17:41.148Z,25.45
2018-11-10T15:22:46.636Z,26.48
2018-11-10T15:27:51.343Z,27.52
2018-11-10T15:32:55.900Z,26.73
2018-11-10T15:38:01.131Z,29.02
2018-11-10T15:43:05.776Z,27.25
2018-11-10T15:48:12.824Z,32.17
2018-11-10T15:53:17.933Z,33.57
2018-11-10T15:58:22.446Z,26.73
2018-11-10T16:03:27.163Z,30.63
2018-11-10T16:08:33.814Z,37.93
2018-11-10T16:13:38.291Z,34.37
2018-11-10T16:18:43.258Z,34.77
2018-11-10T16:23:48.734Z,29.73
2018-11-10T16:28:53.304Z,36.10
2018-11-10T16:33:58.594Z,34.10
2018-11-10T16:39:05.020Z,22.47
2018-11-10T16:44:09.488Z,28.20
2018-11-10T16:49:13.784Z,28.53
2018-11-10T16:54:18.371Z,32.97
2018-11-10T16:59:22.787Z,29.00
2018-11-10T17:04:28.083Z,26.87
2018-11-10T17:09:32.513Z,37.20
2018-11-10T17:14:37.284Z,30.67
2018-11-10T17:19:41.790Z,25.73
2018-11-10T17:24:47.352Z,25.77
2018-11-10T17:29:53.034Z,27.27
2018-11-10T17:34:57.545Z,29.10
2018-11-10T17:40:03.024Z,30.00
2018-11-10T17:45:09.322Z,35.33
2018-11-10T17:50:15.056Z,38.83
2018-11-10T17:55:19.562Z,37.40
2018-11-10T18:00:24.074Z,30.80
2018-11-10T18:05:28.830Z,27.10
2018-11-10T18:10:33.136Z,26.60
2018-11-10T18:15:38.207Z,31.55
2018-11-10T18:20:42.642Z,25.03
2018-11-10T18:25:47.078Z,24.97
2018-11-10T18:30:52.243Z,34.13
2018-11-10T18:35:56.976Z,33.03
2018-11-10T18:41:01.472Z,30.43
2018-11-10T18:46:06.523Z,30.13
2018-11-10T18:51:11.719Z,35.87
2018-11-10T18:56:16.430Z,31.80
2018-11-10T19:01:21.273Z,35.70
2018-11-10T19:06:26.930Z,31.93
2018-11-10T19:11:31.585Z,32.93
2018-11-10T19:16:38.327Z,26.27
2018-11-10T19:21:43.509Z,32.23
2018-11-10T19:26:48.544Z,31.77
2018-11-10T19:31:53.419Z,28.47
2018-11-10T19:36:59.044Z,34.93
2018-11-10T19:42:03.490Z,35.00
2018-11-10T19:47:08.741Z,36.33
2018-11-10T19:52:14.064Z,33.23
2018-11-10T19:57:19.198Z,27.77
2018-11-10T20:07:55.883Z,32.47
2018-11-10T20:13:00.254Z,27.97
2018-11-10T20:18:05.863Z,30.30
2018-11-10T20:23:10.552Z,22.80
2018-11-10T20:28:14.992Z,29.40
2018-11-10T20:33:19.664Z,30.27
2018-11-10T20:38:25.685Z,31.87
2018-11-10T20:43:30.355Z,29.60
2018-11-10T20:48:35.304Z,31.30
2018-11-10T20:53:39.865Z,36.87
2018-11-10T20:58:44.252Z,38.23
2018-11-10T21:03:51.200Z,30.33
2018-11-10T21:08:55.662Z,29.70
2018-11-10T21:14:00.058Z,37.00
2018-11-10T21:19:05.617Z,42.13
2018-11-10T21:24:10.078Z,35.53
2018-11-10T21:29:14.710Z,42.90
2018-11-10T21:34:19.492Z,36.47
2018-11-10T21:39:23.876Z,42.73
2018-11-10T21:44:28.421Z,37.27
2018-11-10T21:49:32.915Z,35.43
2018-11-10T21:54:37.242Z,32.60
2018-11-10T21:59:41.917Z,40.10
2018-11-10T22:04:46.502Z,41.00
2018-11-10T22:10:10.375Z,41.87
2018-11-10T22:15:16.420Z,41.97
2018-11-10T22:20:22.118Z,41.77
2018-11-10T22:25:26.929Z,47.07
2018-11-10T22:30:31.783Z,37.83
2018-11-10T22:35:36.404Z,39.67
2018-11-10T22:40:40.960Z,41.75
2018-11-10T22:45:46.033Z,42.17
2018-11-10T22:50:50.692Z,38.40
2018-11-10T22:55:55.301Z,37.75
2018-11-10T23:01:05.354Z,37.63
2018-11-10T23:06:10.858Z,36.70
2018-11-10T23:11:15.433Z,40.63
2018-11-10T23:16:20.124Z,43.35
2018-11-10T23:21:24.519Z,39.27
2018-11-10T23:26:29.159Z,36.77
2018-11-10T23:31:33.543Z,36.77
2018-11-10T23:36:38.077Z,38.85
2018-11-10T23:41:42.724Z,36.13
2018-11-10T23:46:47.194Z,39.17
2018-11-10T23:51:51.861Z,41.80
2018-11-10T23:56:57.817Z,35.03
